Date,TemperatureHighF,TemperatureAvgF,TemperatureLowF,DewpointHighF,DewpointAvgF,DewpointLowF,HumidityHigh,HumidityAvg,HumidityLow,PressureMaxIn,PressureMinIn,WindSpeedMaxMPH,WindSpeedAvgMPH,GustSpeedMaxMPH,PrecipitationSumIn
2013-1-1,19.9,6.0,-8.5,14.0,-7.6,-26.4,78,54,40,30.24,29.97,15,4,15,0.00
2013-1-2,21.7,19.1,16.2,17.1,13.5,9.0,87,79,67,30.03,29.91,13,7,13,0.00
2013-1-3,21.6,15.4,11.3,16.9,5.5,-2.9,82,65,51,30.24,30.03,15,8,15,0.00
2013-1-4,35.2,21.7,12.9,19.0,9.0,2.0,78,59,40,30.09,29.94,16,5,16,0.00
2013-1-5,28.6,17.7,8.8,17.2,5.1,-1.9,80,58,43,30.06,29.79,13,4,13,0.00
2013-1-6,29.3,18.7,11.3,14.1,7.1,0.7,78,62,40,30.18,29.97,17,7,17,0.00
2013-1-7,36.9,29.1,18.0,20.1,16.9,9.5,72,61,46,29.97,29.82,23,8,23,0.04
2013-1-8,36.5,27.5,13.8,26.2,18.5,7.4,87,70,46,29.94,29.70,20,7,20,0.00
2013-1-9,39.4,30.2,21.7,25.5,16.5,10.9,77,57,39,30.32,29.85,25,9,25,0.00
2013-1-10,44.8,34.7,26.8,35.1,21.3,15.7,100,60,37,30.26,29.67,20,10,20,0.20
2013-1-11,37.4,36.3,35.1,37.4,36.3,35.1,100,100,100,29.67,29.50,15,9,15,0.04
2013-1-12,17.4,10.6,5.7,0.6,-5.7,-10.4,47,47,46,30.03,29.85,9,0,0,0.04
2013-1-13,10.0,6.0,1.9,-6.2,-9.9,-13.7,47,47,47,30.21,30.00,0,0,0,0.00
2013-1-14,18.9,8.8,3.6,1.5,-8.1,-12.2,49,45,43,30.38,30.21,0,0,0,0.00
2013-1-15,29.1,19.4,5.9,11.3,1.8,-11.4,79,46,39,30.24,29.76,19,6,19,0.00
2013-1-16,36.7,26.3,12.0,31.5,12.0,-8.4,86,56,36,30.21,29.59,22,10,22,0.00
2013-1-17,19.2,13.3,7.5,4.5,-4.5,-12.3,58,44,39,30.35,30.21,13,5,13,0.00
2013-1-18,41.7,27.8,17.1,26.9,16.8,4.4,76,64,46,30.24,29.67,18,7,18,0.00
2013-1-19,39.7,21.8,2.5,30.8,10.2,-15.0,90,63,41,30.18,29.62,39,12,39,0.00
2013-1-20,10.0,3.4,-2.0,-8.2,-14.1,-19.1,43,43,43,30.38,30.18,21,11,21,0.00
2013-1-21,-1.8,-5.6,-10.5,-18.9,-22.4,-27.0,43,43,43,30.32,30.24,20,11,20,0.00
2013-1-22,4.8,-2.8,-12.8,-12.8,-19.8,-29.0,43,43,43,30.38,30.21,10,6,10,0.00
2013-1-23,21.6,7.1,-5.1,4.8,-11.2,-23.3,62,42,40,30.59,30.12,31,8,31,0.00
2013-1-24,11.7,1.8,-6.5,-8.1,-17.0,-24.6,40,40,40,30.68,30.12,18,7,18,0.00
2013-1-25,22.3,13.9,3.9,6.1,-2.8,-13.2,58,47,40,30.26,29.88,23,12,23,0.00
2013-1-26,24.1,12.1,-1.8,5.3,-5.6,-18.5,46,44,42,30.32,30.09,17,6,17,0.00
2013-1-27,33.3,28.9,22.8,30.5,18.0,4.9,93,66,44,30.06,29.76,13,6,13,0.00
2013-1-28,36.1,33.0,30.2,34.6,31.4,28.6,100,94,86,29.85,29.59,14,4,14,0.04
2013-1-29,39.6,33.8,27.3,38.7,29.2,16.0,100,85,62,29.70,29.47,16,7,16,0.16
2013-1-30,27.3,18.0,8.1,15.8,5.5,-4.0,67,58,49,29.70,29.62,23,12,23,0.00
2013-1-31,8.1,2.8,-7.2,-4.2,-9.0,-18.5,57,57,57,30.24,29.70,24,13,24,0.00
2013-2-1,7.2,-2.5,-13.2,-4.9,-14.0,-24.1,57,57,57,30.26,30.03,17,5,17,0.00
2013-2-2,14.0,7.3,0.7,1.4,-8.0,-11.0,57,49,43,30.15,29.94,10,4,10,0.00
2013-2-3,19.8,11.7,3.2,1.0,-5.7,-14.3,53,45,41,30.03,29.94,15,6,15,0.00
2013-2-4,16.7,10.7,1.6,8.5,-5.9,-13.6,76,46,43,30.03,29.67,20,4,20,0.00
2013-2-5,30.9,21.3,5.9,23.6,9.6,-9.4,85,62,41,30.03,29.59,18,6,18,0.00
2013-2-6,24.8,15.8,4.3,18.9,4.9,-10.7,78,62,49,30.06,29.88,10,4,10,0.00
2013-2-7,28.6,25.7,23.9,22.0,18.8,15.4,88,75,59,30.24,29.94,13,7,13,0.00
2013-2-8,30.7,22.0,8.8,17.2,8.6,-1.9,76,57,40,30.35,30.18,14,6,14,0.00
2013-2-9,32.5,29.1,23.5,28.1,22.8,16.8,89,77,67,30.18,29.88,24,12,24,0.00
2013-2-10,34.2,31.1,28.0,32.6,27.8,22.9,96,88,77,29.88,29.23,20,7,20,0.00
2013-2-11,31.6,26.2,16.5,30.6,17.0,5.6,96,70,50,30.00,29.26,0,0,0,0.00
2013-2-12,35.4,24.5,12.7,17.3,12.4,2.8,76,61,42,30.00,29.76,15,4,15,0.00
2013-2-13,40.5,29.9,20.3,29.9,20.2,12.9,88,68,44,29.73,29.53,15,3,15,0.08
2013-2-14,33.6,26.4,13.3,30.3,13.3,-3.8,91,60,34,30.15,29.53,20,4,20,0.00
2013-2-15,21.4,12.6,5.4,1.3,-5.4,-11.6,47,44,38,30.26,30.15,17,9,17,0.00
2013-2-16,21.0,10.6,1.6,3.9,-6.9,-14.9,62,44,43,30.24,30.06,7,2,7,0.00
2013-2-17,32.2,21.6,5.2,16.3,5.5,-12.0,63,49,44,30.06,29.59,25,11,25,0.00
2013-2-18,33.4,24.1,9.7,27.3,13.1,-2.7,78,63,50,29.76,29.47,29,11,29,0.00
2013-2-19,13.3,7.0,0.7,0.9,-5.1,-11.0,57,57,57,30.32,29.76,25,13,25,0.00
2013-2-20,18.7,6.9,-6.2,1.2,-9.1,-17.5,57,48,37,30.44,30.32,10,3,10,0.00
2013-2-21,24.4,14.4,-0.4,10.7,-3.4,-17.6,63,45,39,30.44,30.06,13,4,13,0.00
2013-2-22,32.4,24.6,18.3,18.6,14.7,8.9,82,66,49,30.06,29.82,12,5,12,0.00
2013-2-23,37.2,26.3,15.6,24.0,16.1,6.9,82,66,44,29.91,29.79,13,4,13,0.00
2013-2-24,37.6,23.3,8.8,18.5,9.6,-0.3,72,57,41,30.06,29.91,9,1,9,0.04
2013-2-25,38.8,27.7,17.8,20.7,14.7,6.8,75,59,41,30.09,30.00,8,1,8,0.00
2013-2-26,37.2,26.0,12.6,23.6,15.7,5.8,80,66,51,30.03,29.85,13,5,13,0.00
2013-2-27,41.7,32.4,27.1,23.1,19.7,17.1,76,61,39,30.00,29.85,18,8,18,0.00
2013-2-28,31.6,28.6,23.5,18.8,14.7,9.9,68,56,48,30.21,30.00,15,7,15,0.00
2013-3-1,32.9,25.2,14.5,12.3,9.5,1.9,59,51,41,30.32,30.21,13,6,13,0.00
2013-3-2,32.9,20.7,5.0,10.2,2.5,-6.6,69,46,33,30.32,30.12,10,2,10,0.00
2013-3-3,35.4,26.5,16.5,9.8,4.7,1.0,55,40,31,30.12,29.94,19,7,19,0.00
2013-3-4,27.0,25.1,23.9,21.3,12.8,2.7,87,61,35,30.00,29.91,15,7,15,0.00
2013-3-5,33.4,26.8,21.6,24.6,20.3,14.6,89,77,57,30.26,29.94,10,6,10,0.00
2013-3-6,31.1,23.0,10.8,16.5,10.7,-0.8,75,60,45,30.38,30.26,10,5,10,0.00
2013-3-7,33.8,21.3,6.6,12.6,5.8,-4.7,69,51,41,30.35,30.24,15,5,15,0.00
2013-3-8,39.7,31.1,19.0,26.3,19.2,5.7,79,62,45,30.30,30.06,15,8,15,0.20
2013-3-9,38.3,36.2,33.6,38.3,34.8,23.5,100,95,61,30.06,29.65,16,7,16,0.43
2013-3-10,36.0,33.9,29.5,36.0,27.7,20.2,100,79,64,29.94,29.73,18,10,18,0.04
2013-3-11,32.5,28.4,22.6,20.2,17.2,12.1,70,63,50,29.85,29.70,14,9,14,0.00
2013-3-12,33.3,25.8,20.7,13.3,9.8,3.7,69,51,37,30.15,29.79,28,10,28,0.00
2013-3-13,34.7,26.4,12.6,12.6,9.0,3.2,72,48,35,30.35,30.15,15,7,15,0.00
2013-3-14,42.8,32.3,24.4,22.5,19.0,11.0,88,60,40,30.21,29.97,13,6,13,0.04
2013-3-15,35.8,31.4,24.1,30.9,24.4,18.8,86,75,61,29.97,29.79,14,6,14,0.04
2013-3-16,31.1,22.2,11.8,18.8,7.4,-4.6,80,54,40,30.21,29.88,17,8,17,0.00
2013-3-17,28.6,18.1,4.1,10.9,-0.7,-11.7,51,43,37,30.24,29.85,20,8,20,0.00
2013-3-18,29.8,23.3,12.6,27.3,12.3,0.2,92,64,44,29.85,29.53,26,15,26,0.00
2013-3-19,25.7,15.2,6.8,3.6,-2.5,-11.2,57,46,35,30.15,29.76,26,15,26,0.00
2013-3-20,25.2,14.6,5.4,1.3,-6.4,-14.8,44,38,35,30.18,30.06,24,12,24,0.00
2013-3-21,31.6,17.5,1.2,6.9,-2.6,-15.7,54,41,33,30.09,30.00,12,3,12,0.00
2013-3-22,39.6,23.9,6.1,11.9,3.8,-9.0,65,43,30,30.06,30.00,9,2,9,0.00
2013-3-23,42.6,29.7,14.4,17.4,10.8,3.3,67,46,30,30.12,30.03,9,2,9,0.00
2013-3-24,36.9,30.6,27.3,22.3,16.9,12.8,74,57,41,30.06,29.94,15,6,15,0.00
2013-3-25,41.0,31.6,20.8,16.7,13.2,9.1,62,47,34,30.18,30.00,16,8,16,0.00
2013-3-26,44.6,33.3,26.6,20.0,15.9,12.3,62,49,36,30.26,30.18,13,5,13,0.00
2013-3-27,48.0,34.6,21.9,21.2,14.3,10.5,66,45,28,30.32,30.26,10,2,10,0.00
2013-3-28,47.3,34.3,19.4,22.7,14.6,10.6,75,47,29,30.32,30.24,13,3,13,0.00
2013-3-29,51.1,39.1,26.2,33.5,24.1,14.9,73,56,38,30.26,30.03,19,7,19,0.00
2013-3-30,54.1,43.7,34.7,46.1,34.6,27.7,96,72,47,30.03,29.79,18,8,18,0.51
2013-3-31,41.9,34.6,24.1,32.4,19.8,7.2,88,58,31,30.06,29.73,24,12,24,0.00
2013-4-1,36.7,27.2,17.4,12.2,9.0,5.4,62,47,34,30.24,30.06,21,11,21,0.00
2013-4-2,39.7,28.8,18.1,16.0,9.8,4.7,71,47,30,30.32,30.21,18,7,18,0.00
2013-4-3,46.9,34.7,16.9,25.3,15.1,6.2,74,46,28,30.38,30.00,27,11,27,0.00
2013-4-4,53.6,43.7,30.4,30.7,21.7,13.9,69,43,29,30.15,29.94,22,11,22,0.00
2013-4-5,45.1,33.8,21.7,32.5,19.5,10.7,91,59,29,30.24,29.88,17,7,17,0.00
2013-4-6,53.1,41.1,35.8,38.2,30.0,20.4,88,67,37,29.88,29.47,23,10,23,0.20
2013-4-7,50.4,40.8,33.3,36.2,30.1,24.7,85,68,40,29.91,29.70,15,6,15,0.12
2013-4-8,47.3,42.3,39.2,46.2,39.3,33.4,100,89,76,30.03,29.65,13,5,13,0.71
2013-4-9,46.6,38.9,34.9,33.6,25.2,15.5,79,60,38,30.15,29.97,20,10,20,0.00
2013-4-10,41.0,36.2,31.8,27.7,20.4,15.9,84,54,38,30.18,29.88,20,9,20,0.00
2013-4-11,36.7,34.2,30.2,30.7,24.9,14.2,89,70,41,29.91,29.65,20,10,20,0.08
2013-4-12,40.8,32.7,28.6,29.0,24.7,19.4,89,74,45,29.79,29.65,12,5,12,0.31
2013-4-13,39.2,32.4,25.5,29.2,21.2,14.4,86,65,45,29.91,29.79,15,3,15,0.04
2013-4-14,37.0,32.0,25.2,37.0,25.3,14.5,100,77,52,29.91,29.47,22,6,22,0.31
2013-4-15,40.3,36.2,32.7,37.0,25.1,21.0,100,65,50,29.91,29.47,23,13,23,0.36
2013-4-16,46.9,39.1,33.3,26.4,22.4,17.8,71,52,37,30.30,29.91,20,7,20,0.00
2013-4-17,42.3,36.8,31.8,33.0,24.8,19.6,92,63,48,30.30,29.91,16,7,16,0.04
2013-4-18,34.9,33.5,32.5,33.1,31.7,30.4,100,93,88,29.91,29.47,17,6,17,0.00
2013-4-19,39.6,33.7,26.2,32.7,23.3,8.7,100,69,41,29.94,29.44,22,3,22,0.39
2013-4-20,45.9,31.9,16.5,14.7,10.1,3.5,61,41,25,30.26,29.94,12,3,12,0.04
2013-4-21,47.1,39.7,32.5,45.4,32.0,12.8,95,76,42,30.26,29.97,29,10,29,0.08
2013-4-22,47.8,38.3,33.1,38.0,29.6,20.5,94,74,38,30.21,30.09,16,6,16,0.00
2013-4-23,45.5,36.4,29.1,31.9,23.5,13.0,96,64,33,30.12,30.03,20,5,20,0.12
2013-4-24,56.5,38.1,24.1,32.1,23.2,14.9,84,59,27,30.03,29.85,26,8,26,0.00
2013-4-25,54.7,43.1,30.6,31.6,24.3,18.0,86,52,27,30.18,29.94,15,9,15,0.00
2013-4-26,74.3,59.0,45.9,37.2,30.4,21.7,56,35,22,30.09,29.91,23,9,23,0.00
2013-4-27,78.6,59.7,36.0,39.4,29.1,20.9,75,36,13,30.09,29.85,17,5,17,0.00
2013-4-28,80.6,65.0,52.5,49.6,40.7,36.3,76,44,21,29.85,29.59,25,12,25,0.04
2013-4-29,77.2,62.8,46.2,52.5,38.4,28.7,83,45,20,29.79,29.50,15,6,15,0.00
2013-4-30,70.7,64.8,55.6,55.0,39.7,23.8,71,43,20,29.91,29.35,25,12,25,0.00
2013-5-1,55.6,42.3,35.2,34.2,27.8,20.3,86,58,35,30.47,29.91,15,6,15,0.16
2013-5-2,50.9,41.1,35.6,24.7,20.9,17.8,58,45,32,30.53,30.41,20,10,20,0.00
2013-5-3,38.7,34.9,31.1,31.8,26.2,18.1,87,71,48,30.41,30.15,17,9,17,0.08
2013-5-4,48.6,40.2,33.8,38.7,34.2,30.5,94,80,60,30.15,30.09,13,5,13,0.08
2013-5-5,68.2,51.8,37.9,40.4,36.4,32.8,85,59,35,30.15,30.03,10,5,10,0.00
2013-5-6,79.7,60.3,40.3,44.8,37.8,34.4,85,49,22,30.09,29.97,12,3,12,0.00
2013-5-7,81.7,64.8,46.8,52.0,38.6,30.8,83,44,18,30.03,29.91,18,4,18,0.00
2013-5-8,79.5,64.4,54.5,54.6,45.6,35.1,85,55,22,29.97,29.91,18,4,18,0.08
2013-5-9,58.5,53.3,42.3,54.7,44.0,21.4,89,72,42,30.09,29.94,18,8,18,0.04
2013-5-10,70.9,53.8,34.3,30.3,23.2,15.7,64,34,15,30.12,29.82,14,5,14,0.00
2013-5-11,56.5,47.6,37.8,32.0,20.9,13.7,51,35,26,30.15,29.82,32,13,32,0.00
2013-5-12,62.6,47.2,30.9,23.4,16.2,6.8,55,32,14,30.21,30.06,20,6,20,0.00
2013-5-13,70.7,53.8,31.1,39.8,27.2,15.4,67,38,24,30.09,29.59,26,9,26,0.00
2013-5-14,95.9,71.4,46.4,50.0,36.5,16.5,84,36,7,29.65,29.41,26,9,26,0.00
2013-5-15,83.3,68.8,50.7,42.3,38.0,34.3,64,35,19,29.88,29.62,22,6,22,0.00
2013-5-16,86.2,74.6,55.0,40.8,32.0,12.9,55,23,12,29.88,29.79,18,7,18,0.00
2013-5-17,67.3,60.1,55.4,55.6,46.4,17.4,88,67,15,29.97,29.85,18,8,18,0.08
2013-5-18,80.4,66.1,56.1,66.0,56.5,52.3,100,75,41,29.97,29.76,18,8,18,0.71
2013-5-19,83.5,69.8,65.1,66.5,61.4,53.4,96,77,36,29.76,29.53,32,8,32,0.94
2013-5-20,70.3,65.9,63.0,65.5,59.4,48.4,100,82,46,29.53,29.47,25,3,25,0.24
2013-5-21,63.0,55.3,48.2,59.0,52.8,46.0,96,91,86,29.70,29.50,12,5,12,0.24
2013-5-22,54.1,50.3,46.4,48.2,45.5,39.2,94,84,64,29.97,29.67,15,7,15,0.00
2013-5-23,67.3,54.0,42.8,40.9,30.2,22.0,82,45,23,30.32,29.97,15,6,15,0.00
2013-5-24,70.5,54.9,35.4,52.2,32.7,24.8,86,47,25,30.38,30.18,15,5,15,0.20
2013-5-25,65.7,59.0,54.3,53.5,44.0,35.4,94,60,34,30.24,30.18,22,9,22,0.60
2013-5-26,60.1,57.2,52.2,43.0,36.3,29.3,61,46,33,30.21,30.03,18,8,18,0.00
2013-5-27,61.7,58.6,55.9,55.4,46.8,40.4,93,66,52,30.03,29.82,15,7,15,0.00
2013-5-28,61.2,58.2,55.0,56.3,53.4,50.8,91,84,78,29.82,29.67,8,2,8,0.00
2013-5-29,77.7,67.0,57.0,66.8,58.3,52.3,93,75,46,29.79,29.59,17,6,17,0.55
2013-5-30,77.4,69.9,65.7,68.0,60.7,51.3,100,75,42,29.65,29.47,30,12,30,0.16
2013-5-31,80.1,69.3,61.7,64.2,51.4,42.2,100,58,31,29.53,29.44,38,11,38,0.24
2013-6-1,74.7,60.8,51.6,59.8,48.9,40.0,82,66,39,29.91,29.50,15,5,15,0.08
2013-6-2,70.7,58.2,48.7,39.8,35.3,31.3,64,45,26,30.06,29.91,13,6,13,0.00
2013-6-3,69.6,59.3,44.8,49.4,38.3,31.8,85,50,26,30.03,29.91,9,2,9,0.00
2013-6-4,64.6,59.3,55.4,53.9,44.2,33.4,94,59,38,30.06,29.94,20,6,20,0.00
2013-6-5,60.4,57.9,54.1,59.0,56.1,50.8,100,94,86,30.03,29.91,10,5,10,0.08
2013-6-6,57.9,54.5,51.4,54.5,50.5,48.3,95,86,73,30.00,29.94,12,4,12,0.00
2013-6-7,64.8,58.7,53.2,53.1,48.3,43.7,88,70,48,30.03,29.88,7,1,7,0.00
2013-6-8,72.0,63.9,53.1,56.3,47.9,42.2,89,59,36,29.88,29.85,14,5,14,0.00
2013-6-9,66.4,60.9,58.1,62.1,56.1,47.3,96,85,57,29.88,29.73,13,4,13,0.51
2013-6-10,76.1,66.5,59.7,65.1,58.2,52.8,95,77,46,29.82,29.76,9,1,9,0.00
2013-6-11,79.0,67.0,55.2,67.0,59.8,51.3,93,78,50,29.85,29.76,10,1,10,0.00
2013-6-12,76.3,66.2,60.8,68.1,57.2,44.7,95,76,43,29.91,29.73,12,3,12,0.47
2013-6-13,65.5,61.9,57.7,44.5,43.5,42.8,61,51,46,29.97,29.91,9,3,9,0.00
2013-6-16,75.7,69.4,63.9,51.9,46.9,43.0,65,46,32,29.82,29.79,9,1,9,0.00
2013-6-17,83.3,69.2,58.1,58.1,50.2,44.5,84,53,28,30.00,29.82,13,4,13,0.00
2013-6-18,77.7,65.3,51.6,53.2,46.6,38.7,71,52,34,30.06,30.00,10,3,10,0.00
2013-6-19,85.1,71.5,56.1,56.5,51.4,44.6,85,53,26,30.03,29.91,14,6,14,0.00
2013-6-20,88.7,78.8,68.9,68.3,56.5,51.6,71,48,29,29.97,29.85,21,8,21,0.00
2013-6-21,81.7,73.4,66.2,69.2,62.5,55.4,95,72,42,30.03,29.70,28,6,28,1.69
2013-6-22,81.3,72.8,67.5,70.0,65.1,58.8,100,79,50,29.94,29.79,20,3,20,0.31
2013-6-23,84.4,75.4,68.2,71.4,63.5,55.1,100,70,39,29.85,29.65,23,8,23,0.83
2013-6-24,83.1,73.2,62.4,68.6,61.6,53.5,95,69,41,29.88,29.76,17,4,17,0.00
2013-6-25,87.1,76.3,64.6,68.9,63.0,56.1,91,66,38,29.79,29.67,15,5,15,0.00
2013-6-26,91.8,79.9,73.0,75.2,66.2,56.8,95,66,33,29.79,29.62,17,5,17,0.28
2013-6-27,90.0,77.4,67.5,65.1,54.0,42.1,86,50,20,29.79,29.76,22,7,22,0.00
2013-6-28,80.6,70.7,65.8,64.7,56.0,49.0,89,61,38,29.76,29.73,23,8,23,0.04
2013-6-29,78.4,69.6,63.1,66.2,53.9,40.8,95,63,31,29.97,29.73,15,5,15,0.35
2013-6-30,85.5,69.6,55.8,54.9,47.0,39.0,84,50,22,30.09,29.97,13,3,13,0.00
2013-7-1,86.7,72.1,58.1,61.8,50.2,40.2,89,52,21,30.18,30.09,10,2,10,0.00
2013-7-2,86.4,71.3,57.2,53.2,47.3,39.6,80,47,21,30.15,30.03,7,2,7,0.00
2013-7-3,88.5,71.4,56.8,58.6,46.3,38.6,87,47,19,30.06,29.94,10,1,10,0.00
2013-7-4,90.7,76.3,60.6,57.4,48.5,40.4,81,42,19,29.94,29.82,20,8,20,0.00
2013-7-5,88.5,80.0,70.7,55.4,51.5,46.2,52,38,25,29.88,29.76,26,13,26,0.00
2013-7-6,89.1,80.7,73.6,59.8,55.6,52.0,54,43,30,29.85,29.76,19,9,19,0.00
2013-7-7,93.6,81.1,70.3,67.3,61.4,53.1,89,54,30,29.88,29.79,15,6,15,0.12
2013-7-8,87.6,74.0,64.0,67.4,63.6,59.2,93,73,41,30.00,29.88,7,3,7,0.00
2013-7-9,86.2,76.9,69.4,73.8,65.1,58.0,96,69,42,29.94,29.70,22,7,22,0.51
2013-7-10,84.0,73.2,64.2,59.9,50.9,44.2,72,48,26,30.03,29.88,15,7,15,0.00
2013-7-11,87.1,73.5,58.8,62.5,50.0,41.8,89,50,22,30.09,29.94,21,5,21,0.00
2013-7-12,90.0,79.5,70.2,53.9,50.5,45.8,53,37,24,30.00,29.88,25,14,25,0.00
2013-7-13,81.3,74.4,67.6,70.9,61.5,48.3,100,66,40,30.06,29.91,22,10,22,2.28
2013-7-14,87.1,76.7,70.9,64.3,58.5,51.3,77,55,31,30.18,30.03,15,7,15,0.00
2013-7-15,89.1,78.5,67.1,68.3,59.8,52.0,90,57,29,30.24,30.15,15,4,15,0.00
2013-7-16,95.4,83.7,75.2,69.9,64.6,57.3,82,55,29,30.21,30.15,16,6,16,0.00
2013-7-17,95.4,83.4,71.8,70.0,63.3,56.5,86,55,29,30.24,30.09,17,4,17,0.00
2013-7-18,96.6,85.7,76.3,68.4,63.7,57.3,76,50,29,30.09,29.73,26,9,26,0.00
2013-7-19,88.9,80.4,70.9,67.9,56.8,48.2,74,46,27,29.88,29.70,20,7,20,0.00
2013-7-20,80.2,71.5,32.0,63.7,54.2,16.8,88,58,31,29.94,29.85,10,3,10,0.00
2013-7-21,81.7,70.1,60.1,64.7,55.3,40.9,81,60,43,29.94,29.79,13,4,13,0.00
2013-7-22,91.0,76.3,68.0,66.5,58.6,47.8,85,58,28,29.82,29.65,17,8,17,0.00
2013-7-23,81.0,69.0,59.7,53.0,46.4,41.5,76,47,27,30.00,29.82,10,4,10,0.00
2013-7-24,80.8,68.1,57.7,56.0,48.9,45.0,75,53,30,30.09,29.97,12,2,12,0.00
2013-7-25,81.1,72.3,61.9,64.5,56.2,48.8,90,60,35,29.97,29.88,18,3,18,0.00
2013-7-26,71.6,64.9,57.0,60.4,50.1,41.2,80,59,43,30.09,29.88,24,7,24,0.08
2013-7-27,61.7,56.5,53.1,53.5,45.6,39.1,82,67,46,30.09,29.94,17,6,17,0.08
2013-7-28,74.3,61.4,50.2,48.3,45.2,42.2,81,58,33,30.06,29.94,12,4,12,0.00
2013-7-29,78.1,65.7,51.3,57.8,47.0,42.0,90,55,30,30.12,30.06,15,4,15,0.00
2013-7-30,71.2,67.0,63.0,65.9,60.7,57.1,96,81,68,30.12,30.06,9,1,9,0.20
2013-7-31,84.0,70.5,61.2,67.8,54.0,39.1,94,62,24,30.06,29.97,20,4,20,0.00
2013-8-1,86.5,69.4,54.0,55.1,47.7,42.7,86,51,22,30.03,29.85,13,3,13,0.00
2013-8-2,80.6,68.4,58.8,55.8,47.8,37.9,81,52,23,30.06,29.85,13,3,13,0.00
2013-8-3,83.1,66.0,52.2,55.3,44.6,37.2,88,52,21,30.21,30.06,12,3,12,0.00
2013-8-4,79.3,65.2,51.8,54.8,45.9,39.5,84,53,26,30.26,30.03,13,3,13,0.00
2013-8-5,82.8,71.1,62.1,67.9,59.4,50.9,100,70,41,30.03,29.79,18,6,18,0.51
2013-8-6,85.8,69.3,57.9,62.5,56.2,51.8,89,66,38,29.85,29.67,22,4,22,0.04
2013-8-7,79.9,67.7,59.5,60.5,50.5,39.4,93,60,25,30.03,29.79,13,3,13,0.00
2013-8-8,80.1,67.1,55.9,60.1,51.0,43.8,89,60,31,30.06,30.00,15,3,15,0.00
2013-8-9,80.6,67.9,58.1,59.5,49.1,39.4,90,56,24,30.15,30.00,15,4,15,0.00
2013-8-10,77.5,66.5,55.0,55.1,47.3,42.2,83,53,30,30.21,30.12,9,1,9,0.00
2013-8-11,82.4,70.2,60.8,64.6,55.9,49.1,91,64,32,30.12,30.00,8,1,8,0.04
2013-8-12,82.6,70.4,60.1,60.3,50.9,41.8,88,55,24,30.09,30.03,17,4,17,0.00
2013-8-13,79.3,65.5,53.8,56.5,43.8,33.2,88,52,21,30.24,30.09,10,2,10,0.00
2013-8-14,79.7,66.7,52.2,55.1,44.6,38.9,86,49,26,30.24,30.12,12,3,12,0.00
2013-8-15,83.5,67.2,53.1,56.9,49.1,45.1,87,56,28,30.15,30.09,13,3,13,0.00
2013-8-16,81.3,69.6,58.5,58.6,49.5,42.8,83,52,27,30.21,30.15,13,2,13,0.00
2013-8-17,84.6,69.8,55.9,58.4,47.5,41.8,90,50,24,30.24,30.15,20,6,20,0.00
2013-8-18,84.9,71.7,57.9,56.4,49.2,43.8,86,49,25,30.18,30.03,20,7,20,0.00
2013-8-19,89.4,77.1,68.4,62.3,57.0,51.4,65,51,32,30.06,29.94,17,9,17,0.00
2013-8-20,91.4,80.6,71.4,69.5,63.2,59.9,75,57,37,29.94,29.88,20,8,20,0.00
2013-8-21,88.7,79.9,71.4,71.1,65.0,51.5,85,62,33,30.06,29.85,14,5,14,0.00
2013-8-22,88.7,75.0,64.0,54.6,43.6,37.0,65,36,18,30.18,30.03,10,3,10,0.00
2013-8-23,88.5,72.9,55.0,62.5,50.7,44.0,78,49,25,30.21,30.06,16,6,16,0.00
2013-8-24,91.8,80.4,71.2,67.4,62.0,58.0,71,55,33,30.12,29.97,29,14,29,0.00
2013-8-25,99.0,86.9,79.2,71.0,65.2,58.7,66,50,27,30.03,29.97,23,12,23,0.00
2013-8-26,98.4,87.3,79.0,71.8,67.7,59.5,77,55,29,30.03,29.88,20,9,20,0.00
2013-8-27,94.1,84.8,75.7,72.3,69.0,64.2,79,61,40,29.97,29.82,12,4,12,0.00
2013-8-28,91.6,79.0,69.4,71.1,61.8,51.8,90,61,27,30.06,29.97,12,2,12,0.00
2013-8-29,95.5,81.7,72.0,75.3,66.3,51.5,95,64,24,30.06,29.88,18,6,18,0.00
2013-8-30,86.4,77.4,70.3,68.5,60.5,53.5,84,58,33,30.00,29.85,13,5,13,0.00
2013-8-31,91.2,74.5,62.6,65.4,58.5,52.2,92,61,28,29.94,29.76,22,5,22,0.12
2013-9-1,73.9,68.3,60.8,62.1,54.6,48.1,84,63,44,30.03,29.76,17,6,17,0.00
2013-9-2,68.9,60.8,53.1,50.4,46.6,43.2,78,61,40,30.15,30.03,10,4,10,0.00
2013-9-3,79.9,62.9,46.8,56.0,47.4,42.0,89,61,32,30.15,30.03,13,3,13,0.00
2013-9-4,85.8,70.8,57.6,65.1,54.7,49.8,92,61,31,30.21,30.06,9,2,9,0.00
2013-9-5,84.7,71.7,58.8,60.7,52.0,44.1,74,52,29,30.30,30.15,15,4,15,0.00
2013-9-6,92.8,80.3,70.0,68.0,59.5,50.8,89,54,26,30.15,29.91,21,9,21,0.00
2013-9-7,93.4,79.9,68.7,68.1,59.2,51.7,84,52,27,30.09,29.91,13,4,13,0.00
2013-9-8,73.9,67.6,63.9,63.5,53.2,43.2,82,60,45,30.12,29.94,13,4,13,0.00
2013-9-9,92.7,77.6,69.4,70.2,66.0,59.7,94,71,34,29.94,29.67,18,6,18,0.00
2013-9-10,82.6,73.5,66.7,69.5,60.2,48.3,86,65,32,30.03,29.79,14,4,14,0.04
2013-9-11,84.9,72.4,61.2,65.0,49.4,38.2,91,51,20,30.12,30.03,15,4,15,0.00
2013-9-12,74.5,63.7,52.9,52.5,42.6,34.6,82,49,26,30.30,30.12,17,5,17,0.00
2013-9-13,72.0,57.3,43.3,48.7,37.8,33.3,84,52,26,30.35,30.15,10,1,10,0.00
2013-9-14,73.4,59.2,47.3,57.7,45.8,36.8,96,66,29,30.15,29.97,20,5,20,0.43
2013-9-15,66.0,59.9,48.2,61.3,53.1,40.3,100,80,47,30.38,29.94,14,4,14,0.20
2013-9-16,67.6,53.2,39.6,45.4,34.7,27.2,91,55,24,30.47,30.30,13,4,13,0.00
2013-9-17,68.0,57.4,45.9,59.8,46.0,35.2,96,68,44,30.32,30.00,23,9,23,0.00
2013-9-18,73.9,68.6,61.0,71.8,65.9,59.7,100,92,73,30.00,29.76,15,8,15,0.00
2013-9-19,77.5,71.3,64.6,72.8,65.5,59.1,96,83,55,29.85,29.70,32,5,32,0.24
2013-9-20,66.0,59.7,51.8,58.8,48.5,38.1,82,68,38,30.00,29.82,18,8,18,0.00
2013-9-21,65.3,54.7,46.8,47.1,42.4,37.4,88,66,38,30.06,29.97,10,3,10,0.00
2013-9-22,72.0,58.2,43.0,49.5,44.4,38.4,94,63,40,30.03,29.91,20,7,20,0.00
2013-9-23,73.6,63.9,55.9,49.0,45.2,41.6,69,52,33,30.00,29.94,23,11,23,0.00
2013-9-24,75.7,63.1,51.8,50.7,45.9,41.6,87,56,30,30.06,29.97,15,4,15,0.00
2013-9-25,73.9,61.7,49.6,55.5,45.9,41.7,91,60,33,30.06,29.94,17,4,17,0.00
2013-9-26,81.7,68.2,55.4,55.5,50.0,45.3,82,55,32,30.00,29.91,28,11,28,0.00
2013-9-27,84.4,73.7,67.3,59.7,54.5,49.8,68,53,31,30.00,29.88,28,14,28,0.00
2013-9-28,74.3,62.3,47.7,65.0,50.5,40.3,93,67,45,30.00,29.70,23,10,23,0.20
2013-9-29,75.6,60.0,43.7,45.4,38.9,33.7,91,52,22,30.03,29.85,18,8,18,0.00
2013-9-30,79.5,68.5,59.5,44.5,41.3,36.5,50,38,26,29.85,29.67,24,12,24,0.00
2013-10-1,75.6,66.3,48.7,47.9,36.6,24.3,58,36,15,30.09,29.67,23,8,23,0.00
2013-10-2,74.8,57.9,41.9,57.5,39.0,27.9,96,57,18,30.15,29.94,20,5,20,0.75
2013-10-3,61.2,59.1,57.0,61.2,57.6,54.5,100,95,91,30.06,29.94,13,4,13,0.08
2013-10-4,60.1,58.3,56.7,59.5,54.7,51.0,100,88,73,30.09,29.97,13,7,13,0.16
2013-10-5,62.8,57.6,46.4,62.8,54.9,41.5,100,91,74,30.00,29.82,15,2,15,0.16
2013-10-6,55.9,49.7,44.2,54.5,46.8,40.0,95,90,83,29.94,29.79,12,2,12,0.04
2013-10-7,66.6,52.4,41.2,53.5,40.5,33.0,95,69,29,30.09,29.94,13,2,13,0.00
2013-10-8,75.9,62.7,45.5,44.0,38.0,33.9,84,44,24,30.09,29.91,29,13,29,0.00
2013-10-9,75.2,66.5,59.7,44.7,41.9,38.3,56,42,31,30.15,30.03,23,11,23,0.00
2013-10-10,77.0,63.8,52.7,46.8,42.9,39.1,70,49,27,30.15,30.00,25,9,25,0.00
2013-10-11,74.8,66.7,58.1,61.0,48.0,43.5,90,53,34,30.00,29.73,35,14,35,0.04
2013-10-12,63.0,51.5,44.8,56.5,40.6,34.1,83,67,46,30.30,29.79,20,8,20,0.00
2013-10-13,60.8,47.3,34.5,42.5,32.7,27.9,87,61,29,30.53,30.30,12,2,12,0.00
2013-10-14,54.5,47.0,37.6,47.8,35.8,30.3,92,67,40,30.53,30.12,10,3,10,0.39
2013-10-15,57.4,53.3,49.5,57.4,53.0,47.8,100,99,92,30.12,29.79,20,6,20,0.98
2013-10-16,55.8,47.9,37.0,49.5,38.1,28.9,100,72,38,30.06,29.94,17,5,17,0.00
2013-10-17,59.2,47.1,37.0,45.9,38.3,29.8,94,74,38,30.00,29.88,13,4,13,0.31
2013-10-18,53.8,45.2,39.4,43.9,33.8,24.6,96,69,34,30.09,29.97,15,6,15,0.16
2013-10-19,47.3,40.8,33.1,43.0,34.7,27.3,91,79,61,29.97,29.82,17,4,17,0.04
2013-10-20,45.0,37.7,30.9,42.6,34.6,26.4,100,89,79,30.00,29.73,16,5,16,0.04
2013-10-21,39.7,34.9,27.1,35.5,19.4,16.3,86,54,40,30.09,30.00,19,8,19,0.00
2013-10-22,41.5,33.3,22.8,31.6,24.5,17.1,85,71,49,30.15,30.06,10,2,10,0.00
2013-10-23,40.3,35.4,33.3,31.6,22.8,13.6,86,62,41,30.24,30.12,15,6,15,0.00
2013-10-24,45.9,37.6,32.9,28.0,21.9,15.7,71,54,39,30.44,30.24,17,6,17,0.00
2013-10-25,56.7,44.3,28.0,37.8,29.0,21.3,89,57,38,30.44,29.91,22,8,22,0.00
2013-10-26,49.1,42.9,35.4,37.0,23.9,20.3,65,48,38,30.32,29.94,29,10,29,0.00
2013-10-27,56.7,42.5,29.8,29.0,24.6,19.9,79,52,32,30.38,30.03,14,6,14,0.00
2013-10-28,45.0,36.4,29.8,24.6,18.6,11.0,69,50,30,31.06,30.38,15,5,15,0.00
2013-10-29,39.9,35.9,28.8,32.8,24.5,19.2,81,63,53,31.30,28.61,12,2,12,0.04
2013-10-30,52.0,46.6,38.3,52.0,45.4,33.3,100,96,82,31.30,28.61,11,1,11,0.04
2013-10-31,52.2,46.4,42.1,52.2,44.9,38.4,100,95,83,29.20,28.64,14,6,14,0.04
2013-11-1,51.8,44.0,36.5,41.9,34.4,25.8,95,72,43,29.20,29.20,15,6,15,0.00
2013-11-2,49.3,39.2,30.6,34.3,25.6,21.4,82,60,37,29.20,29.20,13,4,13,0.00
2013-11-3,55.4,44.4,30.4,32.1,26.5,22.6,84,52,33,29.20,29.20,36,14,36,0.00
2013-11-4,49.3,44.2,31.8,46.8,32.6,26.1,93,65,41,29.20,27.84,27,10,27,0.08
2013-11-5,46.6,35.0,26.6,38.0,26.2,18.5,92,73,37,27.84,27.61,10,1,10,0.00
2013-11-6,42.4,34.3,28.8,35.5,26.9,20.8,94,76,47,27.61,27.61,12,2,12,0.00
2013-11-7,36.9,29.2,21.2,28.8,22.1,15.3,87,75,60,27.61,27.61,12,2,12,0.08
2013-11-8,44.2,34.4,21.2,35.9,22.9,16.0,93,65,41,27.61,27.61,24,8,24,0.08
2013-11-9,44.1,40.8,37.0,38.2,28.4,20.1,85,62,44,27.61,27.61,29,13,29,0.00
2013-11-10,46.0,38.1,29.3,27.3,22.9,17.3,70,55,40,27.61,27.61,23,7,23,0.00
2013-11-11,37.2,24.4,14.0,27.3,6.6,1.1,67,47,37,27.61,27.61,17,10,17,0.00
2013-11-12,29.1,21.1,11.3,8.7,3.6,-1.4,62,47,33,30.65,27.61,13,7,13,0.00
2013-11-13,50.5,39.3,21.7,27.4,19.6,7.1,60,46,34,30.41,29.82,23,11,23,0.00
2013-11-14,52.0,40.1,30.2,31.7,28.1,22.8,78,63,44,29.82,29.70,13,3,13,0.00
2013-11-15,55.6,42.2,27.0,37.6,28.6,23.0,93,62,36,29.79,29.59,18,7,18,0.00
2013-11-16,51.3,46.6,42.3,51.3,42.8,29.2,100,88,55,29.59,29.17,18,8,18,0.04
2013-11-17,47.7,41.9,32.7,47.5,35.5,19.1,100,79,57,29.76,29.23,26,12,26,0.00
2013-11-18,36.0,29.1,19.2,19.4,13.7,9.4,68,53,41,30.24,29.76,28,9,28,0.00
2013-11-19,46.4,34.8,18.1,23.3,18.5,10.3,80,54,37,30.24,29.85,34,13,34,0.00
2013-11-20,45.3,42.0,38.1,34.1,24.7,19.1,84,52,38,30.00,29.85,23,12,23,0.00
2013-11-21,39.2,32.2,24.4,36.6,23.8,8.7,91,72,49,30.50,30.00,19,8,19,0.00
2013-11-22,33.8,23.6,12.7,10.1,4.7,-4.2,67,45,28,30.62,30.41,26,10,26,0.00
2013-11-23,22.1,11.8,5.9,2.8,-8.0,-15.9,51,40,34,30.86,30.62,22,7,22,0.00
2013-11-24,31.1,20.3,4.1,9.7,-1.3,-17.5,48,38,35,30.71,29.91,29,13,29,0.00
2013-11-25,40.5,33.6,28.8,24.0,17.3,9.6,73,51,41,30.03,29.82,26,12,26,0.00
2013-11-26,29.7,20.7,10.8,13.3,1.1,-4.3,53,42,34,30.35,30.03,30,12,30,0.00
2013-11-27,24.6,17.1,4.1,8.8,-0.8,-10.5,67,45,39,30.35,30.03,15,6,15,0.00
2013-11-28,29.7,21.1,8.1,9.2,3.2,-6.8,50,45,41,30.47,30.03,15,5,15,0.00
2013-11-29,32.0,22.3,6.3,15.5,6.5,-8.4,75,51,41,30.50,30.09,22,8,22,0.00
2013-11-30,41.2,31.1,20.5,24.0,17.2,12.6,78,57,41,30.15,30.00,12,4,12,0.00
2013-12-1,36.0,26.0,15.3,23.5,14.2,7.5,78,61,47,30.15,29.88,10,1,10,0.00
2013-12-2,38.8,33.8,25.3,37.6,29.2,17.6,100,84,62,29.88,29.53,15,8,15,0.08
2013-12-3,38.8,37.5,34.5,38.8,37.1,32.7,100,99,92,29.73,29.53,13,5,13,0.00
2013-12-4,34.5,29.8,14.5,32.6,26.3,4.6,94,87,64,29.73,29.41,0,0,0,0.00
2013-12-5,14.5,6.6,-1.3,4.4,-3.0,-10.5,64,64,63,30.30,29.62,0,0,0,0.00
2013-12-6,7.0,-1.7,-7.6,-2.6,-10.9,-16.6,64,64,64,30.62,30.30,0,0,0,0.00
2013-12-7,3.4,-5.3,-12.6,-6.2,-14.3,-21.4,64,64,64,30.71,30.53,0,0,0,0.00
2013-12-8,12.4,5.7,-6.3,2.5,-3.8,-15.4,64,64,64,30.53,29.97,0,0,0,0.00
2013-12-9,10.2,1.2,-4.4,0.4,-8.2,-13.5,64,64,64,30.06,29.79,0,0,0,0.00
2013-12-10,9.0,5.1,-0.4,-0.8,-4.5,-9.9,64,64,64,30.24,29.70,0,0,0,0.00
2013-12-11,4.6,-2.3,-8.9,-4.9,-11.5,-17.8,64,64,64,30.53,30.24,13,4,13,0.00
2013-12-12,18.7,6.4,-0.6,3.4,-5.0,-9.9,64,60,43,30.26,30.21,13,3,13,0.00
2013-12-13,15.4,12.5,10.2,1.2,-2.2,-4.4,54,51,50,30.26,30.15,13,8,13,0.00
2013-12-14,18.1,10.2,0.3,5.2,-3.8,-12.6,63,52,48,30.26,30.03,15,6,15,0.00
2013-12-15,5.9,1.3,-0.9,-7.2,-11.5,-13.6,54,54,54,30.12,30.06,17,5,17,0.00
2013-12-16,23.2,9.0,0.3,20.5,-1.5,-12.4,90,62,54,30.09,29.82,15,6,15,0.00
2013-12-17,31.3,22.1,5.9,26.5,10.3,-7.6,89,61,43,30.06,29.79,32,10,32,0.00
2013-12-18,33.8,22.2,6.1,20.0,9.9,-7.4,80,60,42,30.03,29.59,20,6,20,0.00
2013-12-19,24.3,17.7,15.1,18.2,6.5,0.9,78,62,47,30.06,29.73,13,8,13,0.00
2013-12-20,20.7,15.9,10.9,8.3,5.9,1.9,74,65,53,30.00,29.79,9,3,9,0.00
2013-12-21,23.5,18.8,14.4,10.9,8.7,5.1,70,64,53,29.97,29.79,10,3,10,0.00
2013-12-22,21.0,15.8,8.4,12.3,6.3,-1.4,75,66,55,30.18,29.91,19,8,19,0.00
2013-12-23,8.2,1.4,-6.3,-1.4,-8.0,-15.4,64,64,64,30.47,30.18,17,9,17,0.00
2013-12-24,10.2,0.5,-13.2,0.4,-8.8,-21.9,64,64,64,30.47,30.09,34,8,34,0.00
2013-12-25,25.5,15.8,9.5,18.0,5.9,-0.2,81,65,53,30.09,30.00,17,6,17,0.00
2013-12-26,26.2,19.1,11.3,15.9,10.5,3.9,75,69,61,30.12,30.03,7,0,7,0.00
2013-12-27,38.7,27.2,10.4,27.7,20.0,2.5,93,75,53,30.12,29.82,18,6,18,0.00
2013-12-28,43.9,30.5,18.7,36.9,23.4,7.6,100,77,44,29.97,29.59,24,6,24,0.00
2013-12-29,18.3,0.3,-12.8,7.1,-11.3,-23.9,61,57,56,30.30,30.00,22,9,22,0.00
2013-12-30,2.5,-4.4,-13.4,-9.3,-15.8,-24.3,57,57,57,30.26,30.15,10,2,10,0.00
2013-12-31,-0.4,-7.1,-12.1,-12.0,-18.4,-23.1,57,57,57,30.38,30.15,9,3,9,0.00
2014-1-1,2.5,-2.9,-9.6,-9.3,-14.4,-20.7,57,57,57,30.47,30.38,9,4,9,0.00
2014-1-2,7.7,-3.7,-11.9,-5.1,-15.2,-22.9,57,57,57,30.47,30.32,9,3,9,0.00